Time;durP1;ratioP1;P1;durP2;ratioP2;P2;SDS_P1;SDS_P2;PMS_P1;PMS_P2;Temp;Humidity;BMP_temperature;BMP_pressure;BME280_temperature;BME280_humidity;BME280_pressure;Samples;Min_cycle;Max_cycle;Signal;HPM_P1;HPM_P2
2020/03/31 00:02:09;;;;;;;15.1;9.3;;;;;;;0.3;72.61621;965.0131;;;;
2020/03/31 00:04:34;;;;;;;10.8;8.9;;;;;;;0.28;73.15332;965.0058;;;;
2020/03/31 00:07:21;;;;;;;11.9;9.5;;;;;;;0.21;72.96191;964.9893;;;;
2020/03/31 00:09:47;;;;;;;11.1;9.1;;;;;;;0.27;70.60059;964.9412;;;;
2020/03/31 00:12:33;;;;;;;10.9;8.9;;;;;;;0.23;71.70605;965.011;;;;
2020/03/31 00:14:56;;;;;;;11.4;8.8;;;;;;;0.23;72.68555;964.9947;;;;
2020/03/31 00:17:21;;;;;;;11.7;8.5;;;;;;;0.32;71.23828;965.0174;;;;
2020/03/31 00:19:46;;;;;;;10.4;8.8;;;;;;;0.25;72.79883;964.9855;;;;
2020/03/31 00:22:16;;;;;;;10.4;8.7;;;;;;;0.24;71.58398;965.0122;;;;
2020/03/31 00:25:12;;;;;;;11.1;8.7;;;;;;;0.21;71.37793;965.0422;;;;
2020/03/31 00:27:37;;;;;;;11.1;8.8;;;;;;;0.19;71.59766;964.9789;;;;
2020/03/31 00:30:03;;;;;;;11.2;9.2;;;;;;;0.08;72.44531;964.97;;;;
2020/03/31 00:32:28;;;;;;;11.2;8.8;;;;;;;0.11;71.83301;965.0242;;;;
2020/03/31 00:34:53;;;;;;;9.7;8.6;;;;;;;0.11;71.27148;964.9662;;;;
2020/03/31 00:37:18;;;;;;;10.6;9;;;;;;;0.04;73.01074;965.0266;;;;
2020/03/31 00:39:43;;;;;;;10.9;8.6;;;;;;;0.01;72.3418;964.9902;;;;
2020/03/31 00:42:09;;;;;;;10.9;8.9;;;;;;;0.09;72.2998;964.9551;;;;
2020/03/31 00:45:52;;;;;;;10.5;8.8;;;;;;;0.06;71.93555;964.973;;;;
2020/03/31 00:48:18;;;;;;;10.6;8.9;;;;;;;-0.02;72.29297;964.9561;;;;
2020/03/31 00:50:43;;;;;;;10.2;9.1;;;;;;;0.01;73.13965;964.9797;;;;
2020/03/31 00:53:08;;;;;;;13.7;9.7;;;;;;;0;73.95703;964.9202;;;;
2020/03/31 00:55:33;;;;;;;12.7;10.3;;;;;;;0;74.39648;964.9111;;;;
2020/03/31 00:57:58;;;;;;;13.6;10.4;;;;;;;0.03;74.41309;964.9319;;;;
2020/03/31 01:02:27;;;;;;;14.1;10.8;;;;;;;-0.01;76.96484;964.9157;;;;
2020/03/31 01:04:52;;;;;;;14.8;11.6;;;;;;;-0.17;77.04883;964.8948;;;;
2020/03/31 01:08:42;;;;;;;14;11.3;;;;;;;-0.19;76.93164;964.8977;;;;
2020/03/31 01:11:07;;;;;;;14.4;12;;;;;;;-0.18;76.78809;964.8631;;;;
2020/03/31 01:13:33;;;;;;;13.9;11.8;;;;;;;-0.09;76.41113;964.8232;;;;
2020/03/31 01:15:58;;;;;;;15.3;12.6;;;;;;;-0.09;76.64648;964.8123;;;;
2020/03/31 01:18:23;;;;;;;14.6;11.4;;;;;;;-0.13;76.76367;964.8658;;;;
2020/03/31 01:20:48;;;;;;;15.4;11.6;;;;;;;-0.16;76.44434;964.8688;;;;
2020/03/31 01:25:09;;;;;;;15.6;12;;;;;;;-0.13;75.37207;964.824;;;;
2020/03/31 01:26:02;;;;;;;13.3;10.6;;;;;;;-0.23;76.83594;964.7993;;;;
2020/03/31 01:28:10;;;;;;;13.5;11.3;;;;;;;-0.2;75.59473;964.8084;;;;
2020/03/31 01:30:35;;;;;;;11.8;10.3;;;;;;;-0.3;75.94727;964.7906;;;;
2020/03/31 01:33:00;;;;;;;12.5;10.6;;;;;;;-0.32;76.12402;964.7332;;;;
2020/03/31 01:35:25;;;;;;;12.6;10.2;;;;;;;-0.19;75.5498;964.743;;;;
2020/03/31 01:37:50;;;;;;;11.3;10.1;;;;;;;-0.18;75.19531;964.7532;;;;
2020/03/31 01:40:35;;;;;;;12.3;10.7;;;;;;;-0.21;75.68359;964.7698;;;;
2020/03/31 01:43:00;;;;;;;11.9;10.1;;;;;;;-0.24;75.6543;964.7654;;;;
2020/03/31 01:46:26;;;;;;;13.2;10.5;;;;;;;-0.28;76.53418;964.7733;;;;
2020/03/31 01:48:51;;;;;;;13.1;10.2;;;;;;;-0.27;76.2666;964.7966;;;;
2020/03/31 01:51:16;;;;;;;13;11.1;;;;;;;-0.38;77.15625;964.7383;;;;
2020/03/31 01:53:41;;;;;;;14.1;10.8;;;;;;;-0.42;76.47461;964.7714;;;;
2020/03/31 01:56:06;;;;;;;12.1;10.2;;;;;;;-0.38;76.80762;964.8326;;;;
2020/03/31 01:58:32;;;;;;;13.7;10.6;;;;;;;-0.37;76.5293;964.8477;;;;
2020/03/31 02:00:57;;;;;;;14.1;11.6;;;;;;;-0.26;76.46973;964.885;;;;
2020/03/31 02:03:22;;;;;;;14.3;11.6;;;;;;;-0.38;77.23438;964.8922;;;;
2020/03/31 02:05:47;;;;;;;13.8;10.8;;;;;;;-0.36;76.77734;964.8541;;;;
2020/03/31 02:08:12;;;;;;;13.5;11;;;;;;;-0.4;76.90527;964.8869;;;;
2020/03/31 02:10:37;;;;;;;14.3;11.2;;;;;;;-0.4;76.95996;964.9113;;;;
2020/03/31 02:13:02;;;;;;;13.7;11.3;;;;;;;-0.43;76.89941;964.9392;;;;
2020/03/31 02:15:27;;;;;;;17.4;12.7;;;;;;;-0.54;78.27051;965.0222;;;;
2020/03/31 02:17:53;;;;;;;14.5;12.2;;;;;;;-0.59;79.23535;964.9955;;;;
2020/03/31 02:20:27;;;;;;;15.6;13.3;;;;;;;-0.57;79.00488;965.0153;;;;
2020/03/31 02:22:52;;;;;;;15.7;12.9;;;;;;;-0.6;79.14551;965.0173;;;;
2020/03/31 02:25:17;;;;;;;15.8;13.5;;;;;;;-0.49;79.27832;964.9451;;;;
2020/03/31 02:27:42;;;;;;;15.9;12.7;;;;;;;-0.46;79.16016;964.9211;;;;
2020/03/31 02:30:07;;;;;;;15.6;13;;;;;;;-0.53;79.03223;964.9592;;;;
2020/03/31 02:32:32;;;;;;;15.7;12.7;;;;;;;-0.54;79.43652;964.9617;;;;
2020/03/31 02:34:58;;;;;;;14.7;13.1;;;;;;;-0.51;79.68848;964.8822;;;;
2020/03/31 02:37:23;;;;;;;16.1;13.3;;;;;;;-0.52;79.95703;964.913;;;;
2020/03/31 02:39:48;;;;;;;16.4;13.2;;;;;;;-0.53;80.35547;964.9592;;;;
2020/03/31 02:42:13;;;;;;;15.4;12.8;;;;;;;-0.33;79.22852;964.9945;;;;
2020/03/31 02:44:38;;;;;;;16.7;13.3;;;;;;;-0.63;80.12598;965.0795;;;;
2020/03/31 02:47:04;;;;;;;13.7;11.1;;;;;;;-0.68;78.32324;965.0666;;;;
2020/03/31 02:50:10;;;;;;;14.5;11.5;;;;;;;-0.89;79.41504;964.9963;;;;
2020/03/31 02:51:53;;;;;;;14.1;11.6;;;;;;;-1.09;79.75684;965.1633;;;;
2020/03/31 02:54:18;;;;;;;13.1;10.8;;;;;;;-1.01;79.05566;965.178;;;;
2020/03/31 02:56:43;;;;;;;14.4;11.1;;;;;;;-1.09;78.4707;965.0948;;;;
2020/03/31 02:59:09;;;;;;;14.2;11.1;;;;;;;-1.33;79.90527;965.1136;;;;
2020/03/31 03:04:01;;;;;;;13.1;11.4;;;;;;;-1.12;78.91211;965.0477;;;;
2020/03/31 03:06:24;;;;;;;13.9;10.6;;;;;;;-1.06;78.38672;965.0389;;;;
2020/03/31 03:08:49;;;;;;;14.8;11.1;;;;;;;-0.97;77.0459;965.0449;;;;
2020/03/31 03:12:26;;;;;;;13.3;9.8;;;;;;;-1.23;76.44043;965.024;;;;
2020/03/31 03:14:51;;;;;;;12.4;9.5;;;;;;;-1.16;77.16797;965.0089;;;;
2020/03/31 03:17:16;;;;;;;12.9;9.7;;;;;;;-1.06;76.78516;965.0017;;;;
2020/03/31 03:19:41;;;;;;;11.4;8.7;;;;;;;-1.09;74.5957;965.0613;;;;
2020/03/31 03:22:07;;;;;;;10.9;9.1;;;;;;;-1.17;75.41016;965.0496;;;;
2020/03/31 03:25:10;;;;;;;12.1;9.3;;;;;;;-1.12;76.1123;965.0885;;;;
2020/03/31 03:26:57;;;;;;;11.7;8.6;;;;;;;-1.17;75.84668;965.0706;;;;
2020/03/31 03:29:22;;;;;;;11.8;8.7;;;;;;;-1.19;75.74121;965.0739;;;;
2020/03/31 03:31:47;;;;;;;10.8;9;;;;;;;-1.11;75.09473;965.0645;;;;
2020/03/31 03:34:12;;;;;;;11.6;9;;;;;;;-1.1;75.45703;965.0969;;;;
2020/03/31 03:36:37;;;;;;;11.2;8.9;;;;;;;-1.11;75.44238;965.0981;;;;
2020/03/31 03:39:02;;;;;;;9.8;8;;;;;;;-1.16;74.56055;965.1381;;;;
2020/03/31 03:41:27;;;;;;;10.2;8.2;;;;;;;-1.21;73.99316;965.0864;;;;
2020/03/31 03:43:52;;;;;;;11;8.4;;;;;;;-1.24;74.08789;965.0359;;;;
2020/03/31 03:46:17;;;;;;;10.4;8;;;;;;;-1.22;74.25879;964.9789;;;;
2020/03/31 03:48:42;;;;;;;11.3;8.4;;;;;;;-1.11;74.52441;964.9299;;;;
2020/03/31 03:51:07;;;;;;;10.5;8.2;;;;;;;-1.15;74.66309;964.9402;;;;
2020/03/31 03:53:33;;;;;;;11.1;8;;;;;;;-1.15;74.41699;964.9377;;;;
2020/03/31 03:58:29;;;;;;;9;7.6;;;;;;;-1.12;75.09473;964.9296;;;;
2020/03/31 04:02:26;;;;;;;9.8;8.1;;;;;;;-1.2;75.34766;964.9291;;;;
2020/03/31 04:04:51;;;;;;;9.8;7.6;;;;;;;-1.24;75.09473;964.9649;;;;
2020/03/31 04:07:16;;;;;;;8.8;7.9;;;;;;;-1.25;75.94434;964.9425;;;;
2020/03/31 04:09:41;;;;;;;9.9;8.2;;;;;;;-1.24;76.37109;964.9895;;;;
2020/03/31 04:12:07;;;;;;;10.8;9.2;;;;;;;-1.19;76.72656;964.959;;;;
2020/03/31 04:14:32;;;;;;;12.4;9.7;;;;;;;-1.15;78.44824;964.9641;;;;
2020/03/31 04:16:57;;;;;;;13.6;10.1;;;;;;;-1.22;78.26855;964.9856;;;;
2020/03/31 04:19:22;;;;;;;13.1;10.2;;;;;;;-1.31;78.53027;964.9886;;;;
2020/03/31 04:21:47;;;;;;;10.8;8.6;;;;;;;-1.29;76.58691;964.981;;;;
2020/03/31 04:24:12;;;;;;;9.9;8.2;;;;;;;-1.24;76.37109;964.9866;;;;
2020/03/31 04:26:37;;;;;;;12.5;8.9;;;;;;;-1.13;76.14258;964.9766;;;;
2020/03/31 04:29:02;;;;;;;11.1;8.3;;;;;;;-1.25;76.51563;964.9377;;;;
2020/03/31 04:31:27;;;;;;;12.3;9;;;;;;;-1.2;76.82715;964.9835;;;;
2020/03/31 04:33:52;;;;;;;10.7;8.6;;;;;;;-1.06;75.40723;965.0027;;;;
2020/03/31 04:36:17;;;;;;;10.4;8.5;;;;;;;-1.03;75.09863;965.0248;;;;
2020/03/31 04:38:42;;;;;;;10.6;8.3;;;;;;;-1.06;75.40723;965.1317;;;;
2020/03/31 04:41:08;;;;;;;10.7;8.4;;;;;;;-0.98;74.53711;965.1913;;;;
2020/03/31 04:43:33;;;;;;;12.2;8.9;;;;;;;-1.2;76.87207;965.1897;;;;
2020/03/31 04:45:58;;;;;;;12;9;;;;;;;-1.26;77.44238;965.2169;;;;
2020/03/31 04:48:23;;;;;;;10.8;8.8;;;;;;;-1.36;76.73047;965.1753;;;;
2020/03/31 04:50:48;;;;;;;12.3;8.9;;;;;;;-1.3;76.52832;965.1817;;;;
2020/03/31 04:53:13;;;;;;;11.8;8.9;;;;;;;-1.4;77.52832;965.2262;;;;
2020/03/31 04:55:38;;;;;;;10.7;8.5;;;;;;;-1.48;77.55859;965.1863;;;;
2020/03/31 04:58:03;;;;;;;11.4;9.1;;;;;;;-1.52;77.30371;965.2578;;;;
2020/03/31 05:00:28;;;;;;;10;8.8;;;;;;;-1.52;77.49609;965.207;;;;
2020/03/31 05:02:53;;;;;;;11;8.8;;;;;;;-1.48;76.99902;965.199;;;;
2020/03/31 05:05:19;;;;;;;14.7;9;;;;;;;-1.51;77.19531;965.2162;;;;
2020/03/31 05:07:44;;;;;;;11.5;8.4;;;;;;;-1.41;77.23438;965.2703;;;;
2020/03/31 05:10:09;;;;;;;11.2;7.9;;;;;;;-1.33;75.30469;965.3198;;;;
2020/03/31 05:12:35;;;;;;;10.8;8.3;;;;;;;-1.41;75.56641;965.3678;;;;
2020/03/31 05:15:00;;;;;;;9.3;7.6;;;;;;;-1.42;76.02539;965.3684;;;;
2020/03/31 05:17:25;;;;;;;9.8;7.6;;;;;;;-0.92;73.07813;965.4644;;;;
2020/03/31 05:19:50;;;;;;;12.7;8;;;;;;;-0.96;74.04688;965.5055;;;;
2020/03/31 05:22:15;;;;;;;12.7;8.9;;;;;;;-1.12;73.61523;965.4611;;;;
2020/03/31 05:24:41;;;;;;;15.5;9.7;;;;;;;-1.3;75.43066;965.495;;;;
2020/03/31 05:27:06;;;;;;;16.9;10.8;;;;;;;-1.29;74.25684;965.48;;;;
2020/03/31 05:29:31;;;;;;;16.3;11.1;;;;;;;-1.26;74.31836;965.4941;;;;
2020/03/31 05:31:56;;;;;;;18.3;11.7;;;;;;;-1.25;74.78027;965.6083;;;;
2020/03/31 05:34:21;;;;;;;16.6;11.7;;;;;;;-1.22;75.14355;965.5897;;;;
2020/03/31 05:36:46;;;;;;;19.6;13.6;;;;;;;-1.07;73.45703;965.5922;;;;
2020/03/31 05:39:11;;;;;;;17.3;12.2;;;;;;;-1.01;73.82422;965.6625;;;;
2020/03/31 05:41:36;;;;;;;18.3;12.1;;;;;;;-1.02;74.13867;965.6475;;;;
2020/03/31 05:44:01;;;;;;;18.5;13.6;;;;;;;-0.97;73.77637;965.6865;;;;
2020/03/31 05:46:26;;;;;;;20.9;14;;;;;;;-0.97;73.16211;965.7242;;;;
2020/03/31 05:48:59;;;;;;;21.3;14.4;;;;;;;-0.95;72.97266;965.7201;;;;
2020/03/31 05:51:19;;;;;;;23.3;16.1;;;;;;;-0.87;72.33594;965.7548;;;;
2020/03/31 05:53:42;;;;;;;23.8;16.7;;;;;;;-0.96;73.68848;965.7966;;;;
2020/03/31 05:56:07;;;;;;;28.7;19.3;;;;;;;-0.88;73.24316;965.8351;;;;
2020/03/31 05:58:33;;;;;;;27.2;20.1;;;;;;;-1.12;73.28125;965.8676;;;;
2020/03/31 06:00:59;;;;;;;26.2;20.5;;;;;;;-1.19;74.11914;965.8666;;;;
2020/03/31 06:03:23;;;;;;;28.4;19.9;;;;;;;-1.1;75.47754;965.8897;;;;
2020/03/31 06:05:49;;;;;;;22.1;15.5;;;;;;;-1.29;75.74609;965.9274;;;;
2020/03/31 06:08:14;;;;;;;19.7;13.8;;;;;;;-1.39;77.50781;965.9703;;;;
2020/03/31 06:10:39;;;;;;;17.2;12.1;;;;;;;-1.16;75.88184;965.959;;;;
2020/03/31 06:13:05;;;;;;;16.3;11.8;;;;;;;-1.08;75.44727;966.0019;;;;
2020/03/31 06:15:30;;;;;;;19.3;12.6;;;;;;;-0.99;75.22949;966.0144;;;;
2020/03/31 06:17:55;;;;;;;15.8;11.3;;;;;;;-1.06;75.88867;966.0281;;;;
2020/03/31 06:20:20;;;;;;;15.9;10.2;;;;;;;-1.16;75.80371;966.1065;;;;
2020/03/31 06:22:45;;;;;;;15.6;9.8;;;;;;;-1.19;76.60547;966.0889;;;;
2020/03/31 06:25:11;;;;;;;14.5;9.5;;;;;;;-1.28;75.84863;966.1457;;;;
2020/03/31 06:27:36;;;;;;;13.9;9.3;;;;;;;-1.24;74.6582;966.1599;;;;
2020/03/31 06:30:01;;;;;;;13.4;9;;;;;;;-1.25;74.90332;966.2007;;;;
2020/03/31 06:32:26;;;;;;;14.6;8.6;;;;;;;-1.2;73.20996;966.1362;;;;
2020/03/31 06:34:51;;;;;;;11.7;8.1;;;;;;;-1.26;71.77734;966.139;;;;
2020/03/31 06:37:16;;;;;;;11.8;8;;;;;;;-1.19;72.74219;966.1479;;;;
2020/03/31 06:39:42;;;;;;;12.7;7.2;;;;;;;-0.89;70.11523;966.1724;;;;
2020/03/31 06:42:07;;;;;;;12.7;7.1;;;;;;;-0.92;67.95996;966.1958;;;;
2020/03/31 06:44:32;;;;;;;8.8;6.4;;;;;;;-0.73;67.14844;966.2651;;;;
2020/03/31 06:46:58;;;;;;;8.2;6.1;;;;;;;-0.6;66.50977;966.2608;;;;
2020/03/31 06:49:23;;;;;;;10.2;6.7;;;;;;;-0.56;65.29297;966.2505;;;;
2020/03/31 06:51:48;;;;;;;8.8;6.1;;;;;;;-0.39;65.31934;966.2653;;;;
2020/03/31 06:54:13;;;;;;;9.6;6.2;;;;;;;-0.43;63.31641;966.2397;;;;
2020/03/31 06:56:38;;;;;;;9;6.1;;;;;;;-0.25;63.45508;966.2787;;;;
2020/03/31 06:59:03;;;;;;;9.7;6.6;;;;;;;-0.16;62.24512;966.1337;;;;
2020/03/31 07:01:28;;;;;;;10.9;7;;;;;;;-0.15;62.23633;966.2427;;;;
2020/03/31 07:03:53;;;;;;;8.4;6.3;;;;;;;-0.13;61.82422;966.2556;;;;
2020/03/31 07:06:19;;;;;;;12.4;7.1;;;;;;;-0.12;63.46387;966.2912;;;;
2020/03/31 07:08:44;;;;;;;11.6;6.9;;;;;;;-0.08;62.11133;966.3372;;;;
2020/03/31 07:11:09;;;;;;;9.4;6.3;;;;;;;-0.1;61.48145;966.3792;;;;
2020/03/31 07:13:35;;;;;;;12.7;7;;;;;;;0.06;61.72852;966.3541;;;;
2020/03/31 07:16:00;;;;;;;10.9;6.8;;;;;;;0.2;61.52441;966.3987;;;;
2020/03/31 07:18:25;;;;;;;11.4;7.3;;;;;;;0.22;61.49219;966.3736;;;;
2020/03/31 07:20:50;;;;;;;10.1;6.7;;;;;;;0.47;61.46289;966.41;;;;
2020/03/31 07:23:16;;;;;;;13.9;7.3;;;;;;;0.51;61.84863;966.3867;;;;
2020/03/31 07:25:41;;;;;;;13.9;7.3;;;;;;;0.74;62.20996;966.4444;;;;
2020/03/31 07:28:06;;;;;;;12.6;8.4;;;;;;;0.57;61.85938;966.4146;;;;
2020/03/31 07:30:31;;;;;;;14.8;8.1;;;;;;;0.67;61.32422;966.5009;;;;
2020/03/31 07:32:56;;;;;;;11.2;6.8;;;;;;;0.66;62.51367;966.4297;;;;
2020/03/31 07:35:22;;;;;;;12.2;7.4;;;;;;;0.93;61.65137;966.4534;;;;
2020/03/31 07:37:47;;;;;;;12.6;7.8;;;;;;;0.81;60.80371;966.4766;;;;
2020/03/31 07:40:12;;;;;;;10.9;6.5;;;;;;;0.78;61.50781;966.5051;;;;
2020/03/31 07:42:37;;;;;;;13.1;6.8;;;;;;;1.06;60.98535;966.4763;;;;
2020/03/31 07:45:02;;;;;;;11.4;6.9;;;;;;;1.17;61.38281;966.4934;;;;
2020/03/31 07:47:27;;;;;;;11.5;6;;;;;;;1.32;59.69434;966.4645;;;;
2020/03/31 07:49:53;;;;;;;10.6;6.4;;;;;;;1.35;60.83691;966.4659;;;;
2020/03/31 07:52:18;;;;;;;10.7;6.7;;;;;;;0.91;59.64746;966.4548;;;;
2020/03/31 07:54:43;;;;;;;9.5;6;;;;;;;1.17;60.03125;966.463;;;;
2020/03/31 07:57:08;;;;;;;9.6;5.3;;;;;;;1.42;58.9082;966.4172;;;;
2020/03/31 07:59:33;;;;;;;9.1;5.3;;;;;;;1.54;58.77832;966.448;;;;
2020/03/31 08:01:59;;;;;;;8.2;4.8;;;;;;;1.63;56.2998;966.5123;;;;
2020/03/31 08:04:24;;;;;;;8.8;5.1;;;;;;;1.53;55.55469;966.4775;;;;
2020/03/31 08:06:49;;;;;;;8.6;4.9;;;;;;;1.65;55.81836;966.4683;;;;
2020/03/31 08:09:14;;;;;;;9.7;4.9;;;;;;;1.83;56.66504;966.4614;;;;
2020/03/31 08:11:53;;;;;;;7.6;4.7;;;;;;;1.85;55.71973;966.4712;;;;
2020/03/31 08:14:18;;;;;;;7.2;4.7;;;;;;;1.83;54.41016;966.4846;;;;
2020/03/31 08:16:43;;;;;;;7.4;4.3;;;;;;;2.08;54.14844;966.4398;;;;
2020/03/31 08:19:08;;;;;;;6.2;4.1;;;;;;;2.05;56.78418;966.4064;;;;
2020/03/31 08:21:33;;;;;;;7.5;4.5;;;;;;;2.25;55.52344;966.4079;;;;
2020/03/31 08:23:58;;;;;;;7;4.2;;;;;;;2.3;53.50977;966.4542;;;;
2020/03/31 08:26:24;;;;;;;5.6;4.1;;;;;;;2.46;53.76758;966.3834;;;;
2020/03/31 08:28:49;;;;;;;6.1;3.7;;;;;;;2.59;54.45117;966.4077;;;;
2020/03/31 08:31:28;;;;;;;7.3;3.9;;;;;;;2.62;50.12695;966.4868;;;;
2020/03/31 08:33:53;;;;;;;6.9;3.4;;;;;;;2.73;50.57031;966.4589;;;;
2020/03/31 08:36:18;;;;;;;5.4;3.3;;;;;;;2.88;50.6543;966.4708;;;;
2020/03/31 08:38:43;;;;;;;7.8;3.1;;;;;;;2.87;49.61426;966.5044;;;;
2020/03/31 08:41:08;;;;;;;3.5;2.5;;;;;;;3.01;47.4248;966.5519;;;;
2020/03/31 08:43:33;;;;;;;5.6;2.7;;;;;;;3.05;47.02246;966.4843;;;;
2020/03/31 08:45:58;;;;;;;5.7;2.6;;;;;;;2.86;47.14844;966.5804;;;;
2020/03/31 08:48:23;;;;;;;4.1;2.5;;;;;;;3.06;47.23926;966.555;;;;
2020/03/31 08:50:49;;;;;;;5;2.7;;;;;;;3.39;45.86035;966.5383;;;;
2020/03/31 08:53:14;;;;;;;3.8;2.3;;;;;;;3.41;47.1416;966.5963;;;;
2020/03/31 08:55:39;;;;;;;6.3;2.8;;;;;;;3.24;46.93066;966.6071;;;;
2020/03/31 08:58:04;;;;;;;4.3;2.6;;;;;;;3.33;47.35938;966.5795;;;;
2020/03/31 09:00:29;;;;;;;3.4;2.5;;;;;;;3.44;46.71582;966.5803;;;;
2020/03/31 09:02:54;;;;;;;4.5;2.7;;;;;;;3.33;48.06055;966.5055;;;;
2020/03/31 09:05:19;;;;;;;3.5;2.7;;;;;;;3.51;48.63672;966.5231;;;;
2020/03/31 09:08:45;;;;;;;4.2;2.5;;;;;;;3.59;48.29395;966.5762;;;;
2020/03/31 09:12:36;;;;;;;3.6;2.6;;;;;;;3.66;48.74316;966.4942;;;;
2020/03/31 09:15:02;;;;;;;4.6;2.7;;;;;;;3.67;48.16699;966.4852;;;;
2020/03/31 09:17:27;;;;;;;4.4;2.3;;;;;;;3.47;49.07324;966.4281;;;;
2020/03/31 09:19:52;;;;;;;4.4;2.7;;;;;;;3.69;48.59863;966.4353;;;;
2020/03/31 09:22:17;;;;;;;3.3;2.5;;;;;;;3.78;48.65527;966.3995;;;;
2020/03/31 09:24:42;;;;;;;4.8;2.3;;;;;;;3.65;49.32031;966.4144;;;;
2020/03/31 09:27:08;;;;;;;3.9;2.2;;;;;;;3.79;48.04492;966.4048;;;;
2020/03/31 09:29:33;;;;;;;3.3;2.2;;;;;;;3.75;48.75391;966.3898;;;;
2020/03/31 09:31:58;;;;;;;3.5;2.2;;;;;;;3.89;48.98535;966.3538;;;;
2020/03/31 09:35:08;;;;;;;4.1;2.4;;;;;;;3.78;49.06445;966.4078;;;;
2020/03/31 09:37:33;;;;;;;3.9;2.6;;;;;;;3.74;48.38965;966.3958;;;;
2020/03/31 09:39:59;;;;;;;4.7;2.3;;;;;;;3.85;49.03613;966.387;;;;
2020/03/31 09:42:49;;;;;;;3.1;2;;;;;;;3.96;48.34668;966.3134;;;;
2020/03/31 09:45:14;;;;;;;4;2.5;;;;;;;3.99;49.08789;966.3635;;;;
2020/03/31 09:47:39;;;;;;;3.8;2.2;;;;;;;4.04;49.18359;966.3293;;;;
2020/03/31 09:50:04;;;;;;;2.9;2.1;;;;;;;4.02;48.7959;966.3377;;;;
2020/03/31 09:52:39;;;;;;;3.1;2.1;;;;;;;4.02;47.86719;966.3281;;;;
2020/03/31 09:55:05;;;;;;;2.7;2;;;;;;;4.01;48.29688;966.3198;;;;
2020/03/31 09:57:30;;;;;;;2.7;2;;;;;;;4.1;47.97754;966.2634;;;;
2020/03/31 09:59:56;;;;;;;4.5;2.1;;;;;;;4.36;47.19043;966.3351;;;;
2020/03/31 10:02:31;;;;;;;4;2.3;;;;;;;4.03;48.50293;966.3272;;;;
2020/03/31 10:04:56;;;;;;;3.3;1.8;;;;;;;4.29;48.04395;966.1782;;;;
2020/03/31 10:07:21;;;;;;;2.7;2;;;;;;;4.17;47.42969;966.2071;;;;
2020/03/31 10:09:46;;;;;;;3.8;1.9;;;;;;;4.31;46.70801;966.175;;;;
2020/03/31 10:12:11;;;;;;;2.9;1.9;;;;;;;4.33;47.1416;966.2729;;;;
2020/03/31 10:14:36;;;;;;;2.9;1.7;;;;;;;4.28;47.125;966.2449;;;;
2020/03/31 10:17:01;;;;;;;4.9;2.3;;;;;;;4.44;46.74512;966.199;;;;
2020/03/31 10:19:26;;;;;;;5.4;2.1;;;;;;;4.45;46.82617;966.1939;;;;
2020/03/31 10:22:02;;;;;;;4.9;2.3;;;;;;;4.39;47;966.2166;;;;
2020/03/31 10:24:31;;;;;;;3.5;2.1;;;;;;;4.51;47.32031;966.2246;;;;
2020/03/31 10:26:57;;;;;;;6.1;2;;;;;;;4.51;47.04883;966.1591;;;;
2020/03/31 10:29:22;;;;;;;4.5;2.1;;;;;;;4.65;46.3252;966.1149;;;;
2020/03/31 10:31:47;;;;;;;3.4;2.1;;;;;;;4.94;45.65234;966.0952;;;;
2020/03/31 10:34:12;;;;;;;3.4;2;;;;;;;4.94;45.69824;966.0356;;;;
2020/03/31 10:36:50;;;;;;;3.9;2.5;;;;;;;5.26;45.3584;966.0047;;;;
2020/03/31 10:39:26;;;;;;;3;2.3;;;;;;;5.27;45.13184;966.0378;;;;
2020/03/31 10:41:51;;;;;;;4.2;2.1;;;;;;;5.4;46.02051;965.976;;;;
2020/03/31 10:44:17;;;;;;;3.7;1.9;;;;;;;5.31;45.21484;966.0355;;;;
2020/03/31 10:46:41;;;;;;;4.1;2.1;;;;;;;5.44;43.84082;966.003;;;;
2020/03/31 10:49:57;;;;;;;3.5;2;;;;;;;5.38;44.1875;965.9658;;;;
2020/03/31 10:52:15;;;;;;;4.1;2.1;;;;;;;5.87;44.25;965.9197;;;;
2020/03/31 10:54:43;;;;;;;3.1;1.6;;;;;;;6.14;43.84375;965.8831;;;;
2020/03/31 10:57:08;;;;;;;2.8;1.9;;;;;;;6.18;43.46094;965.85;;;;
2020/03/31 10:59:33;;;;;;;2.9;2.1;;;;;;;5.89;43.08984;965.8684;;;;
2020/03/31 11:01:59;;;;;;;2.3;2;;;;;;;5.62;42.75586;965.9147;;;;
2020/03/31 11:04:23;;;;;;;2.9;2;;;;;;;5.84;43.19922;965.9895;;;;
2020/03/31 11:06:49;;;;;;;2.6;1.7;;;;;;;5.52;44.47461;966.0133;;;;
2020/03/31 11:09:14;;;;;;;3.4;2;;;;;;;5.74;44.61133;965.9849;;;;
2020/03/31 11:11:40;;;;;;;3.8;2;;;;;;;5.46;44.32129;965.9839;;;;
2020/03/31 11:14:05;;;;;;;4.7;2.1;;;;;;;5.76;42.73633;965.9927;;;;
2020/03/31 11:16:31;;;;;;;2.6;1.9;;;;;;;5.49;42.53809;965.9998;;;;
2020/03/31 11:18:55;;;;;;;3;1.9;;;;;;;5.23;43.06934;965.9677;;;;
2020/03/31 11:21:53;;;;;;;1.9;1.7;;;;;;;5.22;43.5918;965.9456;;;;
2020/03/31 11:24:18;;;;;;;2.1;1.7;;;;;;;5.21;42.93164;965.9175;;;;
2020/03/31 11:27:59;;;;;;;2.7;1.8;;;;;;;5.38;43.31152;965.9411;;;;
2020/03/31 11:30:24;;;;;;;1.9;1.5;;;;;;;5.71;42.10547;965.96;;;;
2020/03/31 11:32:59;;;;;;;2.2;1.7;;;;;;;5.48;44.20898;965.9276;;;;
2020/03/31 11:35:24;;;;;;;3;1.7;;;;;;;5.96;43.83691;965.9636;;;;
2020/03/31 11:39:05;;;;;;;4.1;1.9;;;;;;;5.85;41.33301;965.9509;;;;
2020/03/31 11:41:30;;;;;;;4.6;2.2;;;;;;;5.9;44.15039;965.9194;;;;
2020/03/31 11:43:55;;;;;;;4.7;2.2;;;;;;;5.64;41.99512;965.9642;;;;
2020/03/31 11:46:20;;;;;;;2.8;2.2;;;;;;;5.47;43.02637;966.0131;;;;
2020/03/31 11:48:55;;;;;;;3.9;2;;;;;;;5.61;44.09766;965.9895;;;;
2020/03/31 11:51:33;;;;;;;2.8;2.3;;;;;;;5.71;44.01758;965.9554;;;;
2020/03/31 11:53:59;;;;;;;3.5;2.4;;;;;;;5.73;43.54102;965.9792;;;;
2020/03/31 11:56:24;;;;;;;3;2.3;;;;;;;5.64;43.85059;965.9677;;;;
2020/03/31 11:58:53;;;;;;;3.3;2.5;;;;;;;5.58;44.16309;965.9146;;;;
2020/03/31 12:01:18;;;;;;;3.7;2.3;;;;;;;5.69;43.70703;965.9668;;;;
2020/03/31 12:04:11;;;;;;;3.9;2.5;;;;;;;5.96;42.1748;965.9183;;;;
2020/03/31 12:06:36;;;;;;;3;2.3;;;;;;;6.37;42.94434;965.9476;;;;
2020/03/31 12:09:01;;;;;;;3.3;2.2;;;;;;;6.39;41.13477;965.9309;;;;
2020/03/31 12:11:27;;;;;;;2.3;2;;;;;;;6.34;40.50293;965.9617;;;;
2020/03/31 12:13:52;;;;;;;3.3;2.3;;;;;;;6.47;39.69531;966.0042;;;;
2020/03/31 12:18:08;;;;;;;2.6;2.3;;;;;;;6.04;39.80273;965.9575;;;;
2020/03/31 12:20:33;;;;;;;2.6;2.2;;;;;;;5.83;41.09277;965.9746;;;;
2020/03/31 12:23:12;;;;;;;2.2;2;;;;;;;5.74;39.51367;965.9391;;;;
2020/03/31 12:25:37;;;;;;;3;2.3;;;;;;;5.97;41.42383;965.9526;;;;
2020/03/31 12:28:02;;;;;;;3.5;2.4;;;;;;;5.95;41.49023;965.9077;;;;
2020/03/31 12:30:27;;;;;;;3.4;2.1;;;;;;;6.14;40.68945;965.9439;;;;
2020/03/31 12:32:52;;;;;;;3.4;2.3;;;;;;;6.25;40.44922;965.9256;;;;
2020/03/31 12:35:17;;;;;;;3.5;2.1;;;;;;;6.07;40.45508;965.9363;;;;
2020/03/31 12:37:43;;;;;;;2.5;2.3;;;;;;;6.04;39.16504;965.9807;;;;
2020/03/31 12:40:07;;;;;;;4.3;2.2;;;;;;;6.2;38.47363;965.8924;;;;
2020/03/31 12:42:32;;;;;;;2.5;1.9;;;;;;;6.09;38.81641;965.9253;;;;
2020/03/31 12:44:57;;;;;;;3.6;2.1;;;;;;;6.34;38.82813;965.8962;;;;
2020/03/31 12:47:23;;;;;;;2.9;1.9;;;;;;;6.39;36.92969;965.8396;;;;
2020/03/31 12:49:48;;;;;;;3.6;1.9;;;;;;;6.39;37.65918;965.7933;;;;
2020/03/31 12:52:14;;;;;;;2.6;1.8;;;;;;;6.24;37.48633;965.8311;;;;
2020/03/31 12:54:39;;;;;;;2;1.8;;;;;;;6.25;38.18066;965.8215;;;;
2020/03/31 12:57:04;;;;;;;3;1.8;;;;;;;6.32;37.20703;965.7974;;;;
2020/03/31 12:59:29;;;;;;;3.8;1.9;;;;;;;6.08;35.61523;965.8552;;;;
2020/03/31 13:01:54;;;;;;;1.9;1.7;;;;;;;5.91;38.02637;965.8422;;;;
2020/03/31 13:04:19;;;;;;;2.8;2.1;;;;;;;6.02;36.56641;965.7377;;;;
2020/03/31 13:06:44;;;;;;;3.6;2.6;;;;;;;6.16;36.32813;965.7179;;;;
2020/03/31 13:09:09;;;;;;;2.2;1.9;;;;;;;6.2;35.86523;965.7177;;;;
2020/03/31 13:11:34;;;;;;;2.3;2;;;;;;;6.33;34.75879;965.7203;;;;
2020/03/31 13:14:00;;;;;;;2.8;1.9;;;;;;;6.56;34.8457;965.6838;;;;
2020/03/31 13:16:25;;;;;;;3.4;1.9;;;;;;;6.96;34.69531;965.5883;;;;
2020/03/31 13:18:50;;;;;;;2.7;1.9;;;;;;;6.79;34.89941;965.587;;;;
2020/03/31 13:21:15;;;;;;;2.7;1.9;;;;;;;6.63;36.49316;965.6049;;;;
2020/03/31 13:23:40;;;;;;;2;1.8;;;;;;;6.42;37.98047;965.594;;;;
2020/03/31 13:26:05;;;;;;;3.4;2.1;;;;;;;6.25;37.6582;965.5687;;;;
2020/03/31 13:28:31;;;;;;;2.2;2;;;;;;;6.1;37.70215;965.5094;;;;
2020/03/31 13:30:56;;;;;;;2.3;1.9;;;;;;;6.21;39.32813;965.5286;;;;
2020/03/31 13:33:22;;;;;;;2.6;2.1;;;;;;;6.31;37.66211;965.5288;;;;
2020/03/31 13:35:46;;;;;;;3;2.3;;;;;;;6.11;38.19141;965.5419;;;;
2020/03/31 13:38:16;;;;;;;3.2;2;;;;;;;6.01;38.06836;965.4691;;;;
2020/03/31 13:40:36;;;;;;;3.2;2.3;;;;;;;6.15;38.33203;965.5226;;;;
2020/03/31 13:43:01;;;;;;;3.3;2.5;;;;;;;5.87;40.04883;965.5046;;;;
2020/03/31 13:45:26;;;;;;;3;2.5;;;;;;;5.95;38.46191;965.4656;;;;
2020/03/31 13:47:51;;;;;;;3.5;2.1;;;;;;;6.03;38.57129;965.4888;;;;
2020/03/31 13:50:16;;;;;;;2.4;2.2;;;;;;;6.06;38.93848;965.4748;;;;
2020/03/31 13:52:41;;;;;;;2.5;2.3;;;;;;;6.36;37.70117;965.456;;;;
2020/03/31 13:55:06;;;;;;;3.6;2.6;;;;;;;6.19;37.74316;965.4609;;;;
2020/03/31 13:57:31;;;;;;;3.3;2.1;;;;;;;6.22;39.23828;965.4002;;;;
2020/03/31 13:59:56;;;;;;;3.5;2.6;;;;;;;6.28;39.17578;965.4135;;;;
2020/03/31 14:02:21;;;;;;;4.1;2.4;;;;;;;6.36;38.44238;965.4207;;;;
2020/03/31 14:04:46;;;;;;;2.9;2.4;;;;;;;6.61;38.4082;965.3848;;;;
2020/03/31 14:07:12;;;;;;;3.4;2.1;;;;;;;6.63;39.24121;965.3505;;;;
2020/03/31 14:09:37;;;;;;;4.2;2.6;;;;;;;6.38;39.92578;965.4109;;;;
2020/03/31 14:12:02;;;;;;;3.4;2.6;;;;;;;6.24;39.25195;965.382;;;;
2020/03/31 14:14:27;;;;;;;3.9;2.8;;;;;;;6.1;39.52441;965.3524;;;;
2020/03/31 14:16:52;;;;;;;3.9;2.5;;;;;;;5.82;39.15625;965.3851;;;;
2020/03/31 14:19:17;;;;;;;3.7;2.4;;;;;;;5.75;38.5127;965.3988;;;;
2020/03/31 14:21:42;;;;;;;3.5;2.2;;;;;;;5.85;38.99902;965.3711;;;;
2020/03/31 14:24:07;;;;;;;3.7;2.7;;;;;;;5.91;39.22168;965.386;;;;
2020/03/31 14:26:32;;;;;;;3.5;2.6;;;;;;;5.74;38.81934;965.3949;;;;
2020/03/31 14:28:57;;;;;;;3.3;2.7;;;;;;;5.87;39.68457;965.3898;;;;
2020/03/31 14:31:23;;;;;;;2.5;2.3;;;;;;;6.06;39.79395;965.4102;;;;
2020/03/31 14:33:48;;;;;;;3.7;2.7;;;;;;;5.83;41.0127;965.4468;;;;
2020/03/31 14:36:13;;;;;;;3.9;3;;;;;;;5.71;41.25195;965.4404;;;;
2020/03/31 14:38:38;;;;;;;3.6;2.7;;;;;;;5.9;41.70215;965.4917;;;;